Bribir, Croatia

8:02 AM CEST on April 23, 2017 (GMT +0200)
Dranče ulica | | Change Station

Elev 52 ft 45.16 °N, 14.72 °E | Updated 3 minutes ago

Partly Cloudy
Partly Cloudy
52.3 °F
Feels Like 52.3 °F
N
0.6
Wind Variable Wind from East
Gusts 1.2 mph

Today
High -- | Low -- °F
--% Chance of Precip.
Yesterday
High -- | Low -- °F
Precip. -- in
Pressure 30.04 in
Visibility -9999.0 miles
Clouds
Dew Point 37 °F
Humidity 56%
Rainfall Not available.
Snow Depth Not available.
6:02 AM 7:56 PM
Waning Crescent, 14% visible
METAR LDRI 230600Z 07008KT 020V090 CAVOK 11/01 Q1017
Pressure 30.04 in
Visibility -9999.0 miles
Clouds
Dew Point 37 °F
Humidity 56%
Rainfall Not available.
Snow Depth Not available.
6:02 AM 7:56 PM
Waning Crescent, 14% visible
METAR LDRI 230600Z 07008KT 020V090 CAVOK 11/01 Q1017

Get Severe Weather Alerts

Thanks for signing up!

Be on the lookout for a verification email in your inbox.

You'll start receiving the daily forecast at 8 AM.

×

10-Day Weather Forecast

×

Almanac

Astronomy

Apr. 23, 2017 Rise Set
Actual Time
Civil Twilight
Nautical Twilight
Astronomical Twilight
Moon
Length of Visible Light
Length of Day
Tomorrow will be .
, % of the Moon is Illuminated

Today's Extremes

Country Highs Country Lows

Community

WunderPhotos

WunderBlog® & News

Nearby

Air Quality

  Air Quality AQ Index Pollutant
Not available.

Snow Depth

Station Depth Elevation

Earthquake Activity

City Distance Mag. Time & Date
Minimum magnitude displayed is 2.5.

Coastal Water Temperatures

Place Temperature

Stations

Nearby Weather Stations

Station Location Temp. Windchill Dew Point Humidity Wind Precip. Elev Updated Type